Time;durP1;ratioP1;P1;durP2;ratioP2;P2;SDS_P1;SDS_P2;PMS_P1;PMS_P2;Temp;Humidity;BMP_temperature;BMP_pressure;BME280_temperature;BME280_humidity;BME280_pressure;Samples;Min_cycle;Max_cycle;Signal;HPM_P1;HPM_P2
2021/08/21 00:02:47;;;;;;;;;;;;;;;22.28;53.90;101498.41;5065657;27;96667;-86
2021/08/21 00:05:15;;;;;;;;;;;;;;;22.16;53.87;101499.28;5430155;22;100136;-90
2021/08/21 00:07:42;;;;;;;;;;;;;;;22.10;54.07;101491.66;5049417;27;97007;-90
2021/08/21 00:10:09;;;;;;;;;;;;;;;22.23;53.63;101489.81;5053719;27;99201;-89
2021/08/21 00:12:35;;;;;;;;;;;;;;;22.06;53.88;101485.63;5046475;27;96517;-86
2021/08/21 00:15:02;;;;;;;;;;;;;;;22.11;53.59;101488.88;5061853;27;95959;-87
2021/08/21 00:17:28;;;;;;;;;;;;;;;22.09;53.69;101487.25;5061687;27;96987;-90
2021/08/21 00:19:55;;;;;;;;;;;;;;;22.18;53.82;101491.97;5061426;27;96802;-82
2021/08/21 00:27:50;;;;;;;;;;;;;;;22.21;53.68;101486.34;5059050;27;99024;-85
2021/08/21 00:30:16;;;;;;;;;;;;;;;21.97;54.51;101505.13;5055391;27;96380;-89
2021/08/21 00:32:42;;;;;;;;;;;;;;;22.11;54.25;101498.78;5060613;27;96248;-87
2021/08/21 00:35:10;;;;;;;;;;;;;;;22.26;53.56;101503.03;5058206;27;96932;-87
2021/08/21 00:37:38;;;;;;;;;;;;;;;22.25;53.76;101499.47;5054476;27;98162;-90
2021/08/21 00:40:06;;;;;;;;;;;;;;;22.31;53.64;101497.34;5050368;28;97992;-90
2021/08/21 00:42:37;;;;;;;;;;;;;;;22.28;53.80;101495.72;5059045;28;95875;-89
2021/08/21 00:45:03;;;;;;;;;;;;;;;22.11;54.24;101496.09;5050167;28;95998;-88
2021/08/21 00:47:30;;;;;;;;;;;;;;;21.96;54.53;101499.84;5059697;27;98286;-86
2021/08/21 00:50:00;;;;;;;;;;;;;;;21.74;55.53;101501.34;5060111;27;100021;-82
2021/08/21 00:52:28;;;;;;;;;;;;;;;21.59;55.80;101490.81;5062534;27;96405;-85
2021/08/21 00:57:37;;;;;;;;;;;;;;;21.89;54.94;101491.31;5047440;27;98866;-80
2021/08/21 01:00:05;;;;;;;;;;;;;;;21.98;54.84;101485.34;5060064;27;97995;-84
2021/08/21 01:02:32;;;;;;;;;;;;;;;22.07;54.57;101486.47;5044555;27;96214;-87
2021/08/21 01:04:58;;;;;;;;;;;;;;;22.10;54.61;101489.84;5052751;27;95938;-80
2021/08/21 01:07:26;;;;;;;;;;;;;;;21.99;54.76;101488.88;5057214;27;97856;-87
2021/08/21 01:09:53;;;;;;;;;;;;;;;22.06;54.99;101492.84;5054911;27;97920;-86
2021/08/21 01:12:23;;;;;;;;;;;;;;;22.11;54.67;101496.09;5034359;28;96585;-87
2021/08/21 01:14:50;;;;;;;;;;;;;;;22.15;54.46;101497.56;5027634;28;96806;-89
2021/08/21 01:17:17;;;;;;;;;;;;;;;21.94;55.09;101496.38;5061269;27;98826;-88
2021/08/21 01:19:48;;;;;;;;;;;;;;;22.13;54.50;101494.97;5051969;27;97750;-82
2021/08/21 01:22:17;;;;;;;;;;;;;;;22.03;54.72;101487.69;5057417;27;96392;-87
2021/08/21 01:24:43;;;;;;;;;;;;;;;22.17;54.45;101501.03;5043271;28;96800;-88
2021/08/21 01:27:17;;;;;;;;;;;;;;;22.18;54.50;101497.38;5042799;28;98084;-87
2021/08/21 01:29:44;;;;;;;;;;;;;;;21.99;55.17;101496.97;5044438;27;97737;-89
2021/08/21 01:32:10;;;;;;;;;;;;;;;22.07;54.94;101498.13;5026507;28;96957;-88
2021/08/21 01:34:37;;;;;;;;;;;;;;;22.09;54.80;101487.25;5024334;28;96925;-88
2021/08/21 01:37:03;;;;;;;;;;;;;;;22.07;55.02;101495.41;5038697;28;99183;-89
2021/08/21 01:39:30;;;;;;;;;;;;;;;22.24;54.48;101495.09;5042674;28;98892;-86
2021/08/21 01:41:56;;;;;;;;;;;;;;;22.13;55.08;101496.81;5042036;27;96798;-88
2021/08/21 01:44:24;;;;;;;;;;;;;;;22.11;55.03;101496.09;5038396;28;97084;-86
2021/08/21 01:46:50;;;;;;;;;;;;;;;22.17;54.92;101490.25;5035763;28;98907;-87
2021/08/21 01:49:18;;;;;;;;;;;;;;;22.23;54.69;101500.56;5030955;27;98933;-86
2021/08/21 01:51:45;;;;;;;;;;;;;;;22.08;54.94;101494.47;5038889;28;97905;-86
2021/08/21 01:54:12;;;;;;;;;;;;;;;22.06;55.08;101488.31;5041446;28;96820;-87
2021/08/21 01:56:42;;;;;;;;;;;;;;;22.06;55.49;101498.22;5043947;28;99025;-89
2021/08/21 01:59:08;;;;;;;;;;;;;;;22.00;55.14;101494.13;5043331;28;98864;-89
2021/08/21 02:01:36;;;;;;;;;;;;;;;22.18;54.57;101497.38;5037603;28;96807;-90
2021/08/21 02:04:02;;;;;;;;;;;;;;;22.11;54.68;101491.56;5054093;28;96607;-89
2021/08/21 02:06:28;;;;;;;;;;;;;;;22.24;54.05;101492.41;5041204;28;100392;-88
2021/08/21 02:08:55;;;;;;;;;;;;;;;22.00;54.69;101496.81;5050423;28;97893;-88
2021/08/21 02:11:21;;;;;;;;;;;;;;;22.10;54.45;101500.59;5038015;28;96903;-88
2021/08/21 02:13:47;;;;;;;;;;;;;;;22.21;54.10;101500.69;5040333;27;96756;-87
2021/08/21 02:16:14;;;;;;;;;;;;;;;22.27;54.26;101502.06;5038317;27;99003;-88
2021/08/21 02:18:41;;;;;;;;;;;;;;;22.27;54.20;101502.94;5032553;27;98869;-87
2021/08/21 02:21:07;;;;;;;;;;;;;;;22.37;53.75;101496.88;5031025;27;96867;-88
2021/08/21 02:23:34;;;;;;;;;;;;;;;22.05;54.41;101486.63;5023219;28;96827;-88
2021/08/21 02:26:00;;;;;;;;;;;;;;;22.04;54.66;101484.03;5037408;27;98926;-87
2021/08/21 02:28:26;;;;;;;;;;;;;;;22.15;54.69;101484.97;5035350;28;99189;-88
2021/08/21 02:30:53;;;;;;;;;;;;;;;22.35;54.29;101483.53;5030435;28;96659;-89
2021/08/21 02:33:19;;;;;;;;;;;;;;;22.24;54.36;101488.84;5022631;28;96826;-88
2021/08/21 02:35:46;;;;;;;;;;;;;;;22.05;54.87;101480.38;5039151;28;98260;-88
2021/08/21 02:38:13;;;;;;;;;;;;;;;21.98;55.29;101484.47;5043902;27;97969;-85
2021/08/21 02:40:39;;;;;;;;;;;;;;;21.88;55.78;101486.91;5041145;28;96649;-89
2021/08/21 02:43:06;;;;;;;;;;;;;;;21.74;56.20;101490.56;5048347;27;96764;-87
2021/08/21 02:45:32;;;;;;;;;;;;;;;21.75;55.93;101484.22;5037093;27;99918;-88
2021/08/21 02:47:58;;;;;;;;;;;;;;;21.68;56.59;101493.69;5046753;28;98213;-87
2021/08/21 02:50:25;;;;;;;;;;;;;;;21.52;57.11;101493.06;5039790;27;97710;-89
2021/08/21 02:52:53;;;;;;;;;;;;;;;21.59;56.72;101497.06;5052656;28;95961;-88
2021/08/21 02:55:19;;;;;;;;;;;;;;;21.63;56.75;101490.47;5043647;28;99185;-88
2021/08/21 02:57:45;;;;;;;;;;;;;;;21.61;56.60;101492.41;5049106;27;99134;-88
2021/08/21 03:00:12;;;;;;;;;;;;;;;21.53;56.86;101493.94;5056226;27;96254;-88
2021/08/21 03:02:40;;;;;;;;;;;;;;;21.55;56.86;101487.44;5054290;27;96115;-88
2021/08/21 03:05:06;;;;;;;;;;;;;;;21.50;57.20;101504.88;5048560;27;98262;-89
2021/08/21 03:07:33;;;;;;;;;;;;;;;21.50;57.29;101510.25;5043540;28;97603;-88
2021/08/21 03:10:00;;;;;;;;;;;;;;;21.33;57.80;101506.06;5064819;27;96779;-88
2021/08/21 03:12:29;;;;;;;;;;;;;;;21.41;57.47;101506.38;5042748;27;97278;-81
2021/08/21 03:14:55;;;;;;;;;;;;;;;21.38;57.42;101506.59;5049918;27;97942;-85
2021/08/21 03:17:21;;;;;;;;;;;;;;;21.28;57.49;101511.72;5039207;28;98123;-80
2021/08/21 03:22:31;;;;;;;;;;;;;;;21.17;57.89;101508.91;5055020;27;96043;-79
2021/08/21 03:24:57;;;;;;;;;;;;;;;21.09;58.20;101511.22;5052533;27;97831;-81
2021/08/21 03:27:25;;;;;;;;;;;;;;;21.00;58.62;101510.00;5038367;28;97781;-76
2021/08/21 03:29:51;;;;;;;;;;;;;;;20.86;58.90;101511.91;5042506;28;96018;-89
2021/08/21 03:32:17;;;;;;;;;;;;;;;20.78;59.38;101507.03;5059157;27;96276;-89
2021/08/21 03:34:44;;;;;;;;;;;;;;;20.75;59.42;101503.66;5058130;27;99846;-89
2021/08/21 03:37:11;;;;;;;;;;;;;;;20.77;59.04;101508.00;5058601;27;97794;-89
2021/08/21 03:42:13;;;;;;;;;;;;;;;20.61;59.65;101509.97;6013573;22;100145;-76
2021/08/21 03:44:41;;;;;;;;;;;;;;;20.49;60.08;101505.38;5078628;27;101787;-84
2021/08/21 03:47:08;;;;;;;;;;;;;;;20.42;60.49;101504.91;5079122;27;96766;-77
2021/08/21 03:49:34;;;;;;;;;;;;;;;20.48;59.90;101499.13;5079521;27;95921;-78
2021/08/21 03:52:00;;;;;;;;;;;;;;;20.48;60.17;101506.38;5076545;27;96622;-90
2021/08/21 03:54:27;;;;;;;;;;;;;;;20.56;59.96;101504.03;5077190;27;98788;-89
2021/08/21 03:56:56;;;;;;;;;;;;;;;20.54;59.92;101514.88;5072696;27;99233;-89
2021/08/21 03:59:22;;;;;;;;;;;;;;;20.50;60.00;101512.47;5067400;27;96638;-89
2021/08/21 04:01:50;;;;;;;;;;;;;;;20.61;59.69;101509.97;5066925;27;96643;-89
2021/08/21 04:04:16;;;;;;;;;;;;;;;20.40;60.15;101522.09;5063142;27;98070;-85
2021/08/21 04:06:42;;;;;;;;;;;;;;;20.59;59.67;101519.94;5058797;27;98078;-86
2021/08/21 04:09:09;;;;;;;;;;;;;;;20.59;59.89;101515.44;5070656;27;96872;-87
2021/08/21 04:11:36;;;;;;;;;;;;;;;20.61;59.58;101520.72;5066161;27;97173;-87
2021/08/21 04:14:02;;;;;;;;;;;;;;;20.51;59.44;101523.13;5068959;27;98246;-87
2021/08/21 04:16:28;;;;;;;;;;;;;;;20.67;59.03;101531.06;5067388;27;96919;-89
2021/08/21 04:18:56;;;;;;;;;;;;;;;20.55;59.56;101527.31;5056339;27;96674;-88
2021/08/21 04:21:22;;;;;;;;;;;;;;;20.63;59.33;101529.50;5059645;27;97131;-89
2021/08/21 04:23:53;;;;;;;;;;;;;;;20.64;59.28;101533.91;5060604;27;96829;-90
2021/08/21 04:26:22;;;;;;;;;;;;;;;20.66;59.05;101532.88;5060001;27;97656;-89
2021/08/21 04:28:48;;;;;;;;;;;;;;;20.61;59.33;101536.81;5049626;27;96717;-89
2021/08/21 04:31:15;;;;;;;;;;;;;;;20.63;59.34;101546.47;5063418;27;96773;-88
2021/08/21 04:33:41;;;;;;;;;;;;;;;20.72;59.15;101553.09;5060405;27;98861;-89
2021/08/21 04:36:09;;;;;;;;;;;;;;;20.91;58.48;101550.94;5057648;27;98936;-88
2021/08/21 04:38:35;;;;;;;;;;;;;;;21.01;58.07;101552.03;5064354;27;96865;-88
2021/08/21 04:41:02;;;;;;;;;;;;;;;20.98;58.42;101551.38;5056745;27;97086;-89
2021/08/21 04:43:28;;;;;;;;;;;;;;;21.11;58.20;101554.97;5046196;28;98215;-88
2021/08/21 04:45:55;;;;;;;;;;;;;;;21.12;58.08;101563.91;5047134;27;98180;-89
2021/08/21 04:48:21;;;;;;;;;;;;;;;21.12;58.23;101561.22;5043810;28;96620;-88
2021/08/21 04:50:47;;;;;;;;;;;;;;;21.36;57.73;101559.59;5042113;28;96855;-88
2021/08/21 04:53:15;;;;;;;;;;;;;;;21.31;57.99;101570.66;5044132;27;98255;-87
2021/08/21 04:55:41;;;;;;;;;;;;;;;21.26;58.34;101566.56;5025491;28;97483;-87
2021/08/21 04:58:09;;;;;;;;;;;;;;;21.20;58.68;101566.97;5042705;28;96833;-87
2021/08/21 05:00:40;;;;;;;;;;;;;;;21.31;58.17;101564.44;5039262;28;97192;-86
2021/08/21 05:03:07;;;;;;;;;;;;;;;21.43;57.94;101568.97;5038973;27;98487;-87
2021/08/21 05:05:33;;;;;;;;;;;;;;;21.51;57.64;101560.38;5040033;28;99422;-88
2021/08/21 05:08:00;;;;;;;;;;;;;;;21.68;57.28;101557.38;5032717;28;96775;-88
2021/08/21 05:10:27;;;;;;;;;;;;;;;21.64;57.41;101562.13;5042221;28;96813;-87
2021/08/21 05:12:54;;;;;;;;;;;;;;;21.73;56.86;101571.38;5040224;28;99277;-89
2021/08/21 05:15:20;;;;;;;;;;;;;;;21.77;56.63;101568.38;5041405;28;98107;-86
2021/08/21 05:20:44;;;;;;;;;;;;;;;21.78;56.51;101570.13;5049660;28;96841;-88
2021/08/21 05:23:14;;;;;;;;;;;;;;;21.86;56.34;101578.50;5044952;28;97173;-88
2021/08/21 05:25:45;;;;;;;;;;;;;;;21.85;56.53;101570.56;5050844;28;97782;-89
2021/08/21 05:28:11;;;;;;;;;;;;;;;21.82;56.77;101574.31;5031921;28;96570;-89
2021/08/21 05:30:39;;;;;;;;;;;;;;;21.87;56.52;101576.66;5051142;28;96810;-90
2021/08/21 05:33:07;;;;;;;;;;;;;;;22.11;55.54;101572.31;5049258;28;96967;-89
2021/08/21 05:35:33;;;;;;;;;;;;;;;22.35;54.86;101574.22;5056881;28;96926;-89
2021/08/21 05:38:00;;;;;;;;;;;;;;;22.52;54.56;101584.63;5054055;27;96625;-89
2021/08/21 05:40:26;;;;;;;;;;;;;;;22.61;53.97;101590.22;5049313;28;97000;-86
2021/08/21 05:42:54;;;;;;;;;;;;;;;22.57;53.94;101586.03;5062169;27;96938;-88
2021/08/21 05:45:21;;;;;;;;;;;;;;;22.08;55.04;101593.19;5061336;27;96570;-89
2021/08/21 05:47:48;;;;;;;;;;;;;;;21.84;55.32;101593.91;5067788;27;96588;-89
2021/08/21 05:50:15;;;;;;;;;;;;;;;22.31;54.46;101595.13;5071201;27;96501;-88
2021/08/21 05:52:41;;;;;;;;;;;;;;;22.48;53.87;101584.00;5079127;27;97242;-87
2021/08/21 05:55:08;;;;;;;;;;;;;;;22.78;53.12;101585.44;5068469;27;100790;-90
2021/08/21 05:57:35;;;;;;;;;;;;;;;22.55;53.76;101587.97;5077432;27;96803;-89
2021/08/21 06:00:05;;;;;;;;;;;;;;;22.80;53.29;101583.50;5073169;27;95978;-89
2021/08/21 06:02:32;;;;;;;;;;;;;;;22.57;54.04;101594.09;5071292;27;97350;-89
2021/08/21 06:04:58;;;;;;;;;;;;;;;22.51;53.81;101593.69;5075953;27;98415;-91
2021/08/21 06:07:24;;;;;;;;;;;;;;;22.71;53.59;101597.63;5074626;27;96671;-87
2021/08/21 06:09:51;;;;;;;;;;;;;;;22.94;52.91;101597.69;5071035;27;97136;-87
2021/08/21 06:12:17;;;;;;;;;;;;;;;22.79;52.80;101598.81;5055982;27;98992;-89
2021/08/21 06:14:44;;;;;;;;;;;;;;;22.91;52.30;101606.00;5062616;27;99226;-89
2021/08/21 06:17:12;;;;;;;;;;;;;;;22.96;51.84;101597.59;5067705;27;96566;-89
2021/08/21 06:19:38;;;;;;;;;;;;;;;23.06;51.49;101606.69;5062303;27;96737;-85
2021/08/21 06:22:05;;;;;;;;;;;;;;;23.23;51.29;101609.03;5072051;27;96888;-90
2021/08/21 06:24:32;;;;;;;;;;;;;;;23.59;50.21;101607.22;5075143;27;96854;-90
2021/08/21 06:26:58;;;;;;;;;;;;;;;23.85;49.59;101603.38;5054488;27;96607;-88
2021/08/21 06:29:25;;;;;;;;;;;;;;;24.32;48.44;101604.22;5067510;27;96910;-86
2021/08/21 06:31:52;;;;;;;;;;;;;;;24.65;46.96;101606.91;5061940;27;98730;-89
2021/08/21 06:34:34;;;;;;;;;;;;;;;24.41;47.92;101606.19;5067995;27;99083;-89
2021/08/21 06:37:02;;;;;;;;;;;;;;;23.99;48.85;101605.88;5066975;27;96709;-90
2021/08/21 06:39:29;;;;;;;;;;;;;;;23.94;49.12;101609.91;5075423;27;97107;-90
2021/08/21 06:41:55;;;;;;;;;;;;;;;24.08;49.28;101621.34;5070907;27;98386;-89
2021/08/21 06:44:22;;;;;;;;;;;;;;;24.21;48.95;101611.34;5075714;27;97981;-89
2021/08/21 06:46:48;;;;;;;;;;;;;;;23.84;49.42;101615.16;5077056;27;96118;-91
2021/08/21 06:49:14;;;;;;;;;;;;;;;23.85;49.59;101611.47;5075985;27;96804;-89
2021/08/21 06:51:40;;;;;;;;;;;;;;;24.00;49.41;101614.81;5068277;27;97906;-90
2021/08/21 06:54:08;;;;;;;;;;;;;;;24.22;48.25;101620.28;5066990;27;98148;-88
2021/08/21 06:56:34;;;;;;;;;;;;;;;24.26;48.10;101619.06;5053465;27;97128;-89
2021/08/21 06:59:01;;;;;;;;;;;;;;;24.43;47.92;101618.56;5065775;27;96832;-89
2021/08/21 07:01:29;;;;;;;;;;;;;;;24.87;47.00;101622.25;5068608;27;97800;-89
2021/08/21 07:03:55;;;;;;;;;;;;;;;25.40;45.22;101617.84;5074043;27;97788;-85
2021/08/21 07:06:21;;;;;;;;;;;;;;;25.56;45.29;101620.09;5051645;27;96931;-86
2021/08/21 07:08:47;;;;;;;;;;;;;;;25.53;44.33;101617.66;5055698;27;97725;-85
2021/08/21 07:11:15;;;;;;;;;;;;;;;25.13;44.51;101623.72;5057017;27;99229;-89
2021/08/21 07:13:41;;;;;;;;;;;;;;;25.07;44.55;101618.81;5061201;27;97696;-89
2021/08/21 07:16:07;;;;;;;;;;;;;;;25.14;44.61;101617.28;5061445;27;97116;-90
2021/08/21 07:18:34;;;;;;;;;;;;;;;24.92;45.46;101612.81;5069887;27;96861;-92
2021/08/21 07:21:00;;;;;;;;;;;;;;;24.95;45.49;101617.09;5063769;27;100011;-90
2021/08/21 07:23:26;;;;;;;;;;;;;;;25.24;44.63;101617.38;5071313;27;96780;-90
2021/08/21 07:25:52;;;;;;;;;;;;;;;25.27;44.18;101612.56;5068468;27;98692;-89
2021/08/21 07:28:20;;;;;;;;;;;;;;;24.98;44.87;101620.41;5072970;27;96809;-90
2021/08/21 07:30:46;;;;;;;;;;;;;;;25.19;44.56;101620.50;5174661;22;98992;-87
2021/08/21 07:33:13;;;;;;;;;;;;;;;24.65;45.97;101616.84;5050970;27;97874;-90
2021/08/21 07:35:39;;;;;;;;;;;;;;;23.95;46.92;101620.59;5056565;27;96828;-83
2021/08/21 07:38:05;;;;;;;;;;;;;;;23.51;47.85;101626.69;5043397;27;96826;-83
2021/08/21 07:40:34;;;;;;;;;;;;;;;24.32;46.36;101624.00;5051600;27;99011;-83
2021/08/21 07:43:02;;;;;;;;;;;;;;;24.46;45.20;101623.75;5050535;27;99425;-85
2021/08/21 07:45:31;;;;;;;;;;;;;;;25.17;44.05;101633.28;5060238;27;98138;-85
2021/08/21 07:47:58;;;;;;;;;;;;;;;25.22;43.55;101631.03;5059046;27;98428;-85
2021/08/21 07:50:28;;;;;;;;;;;;;;;26.35;41.20;101638.50;5049469;27;99860;-90
2021/08/21 07:52:54;;;;;;;;;;;;;;;26.27;41.38;101630.19;5068290;27;97692;-90
2021/08/21 07:55:22;;;;;;;;;;;;;;;26.52;40.63;101634.31;5061882;27;96997;-90
2021/08/21 07:57:49;;;;;;;;;;;;;;;26.26;41.64;101635.75;5062939;27;98576;-90
2021/08/21 08:00:15;;;;;;;;;;;;;;;26.02;41.67;101636.84;5064473;27;97842;-89
2021/08/21 08:02:46;;;;;;;;;;;;;;;26.21;41.56;101636.13;5067719;27;97825;-90
2021/08/21 08:05:13;;;;;;;;;;;;;;;25.15;43.21;101631.66;5055599;27;96730;-90
2021/08/21 08:07:41;;;;;;;;;;;;;;;25.42;43.70;101634.78;5057718;27;98593;-89
2021/08/21 08:10:08;;;;;;;;;;;;;;;25.60;42.93;101640.53;5057117;27;99385;-88
2021/08/21 08:12:34;;;;;;;;;;;;;;;26.07;41.48;101645.44;5068812;27;98031;-90
2021/08/21 08:15:00;;;;;;;;;;;;;;;26.34;40.94;101642.22;5059558;27;97033;-87
2021/08/21 08:17:27;;;;;;;;;;;;;;;26.34;40.91;101644.91;5065018;27;96959;-88
2021/08/21 08:19:55;;;;;;;;;;;;;;;25.73;42.17;101644.75;5057240;27;99212;-88
2021/08/21 08:22:23;;;;;;;;;;;;;;;25.77;42.32;101639.97;5062207;27;99186;-88
2021/08/21 08:24:50;;;;;;;;;;;;;;;26.31;40.83;101642.50;5067677;27;97064;-88
2021/08/21 08:27:18;;;;;;;;;;;;;;;26.65;40.42;101645.78;5045747;28;96848;-86
2021/08/21 08:29:44;;;;;;;;;;;;;;;26.75;40.42;101632.28;5058162;27;98963;-85
2021/08/21 08:32:11;;;;;;;;;;;;;;;26.98;40.18;101636.50;5045094;28;97794;-87
2021/08/21 08:34:37;;;;;;;;;;;;;;;27.09;39.80;101633.69;5057497;27;96868;-87
2021/08/21 08:37:09;;;;;;;;;;;;;;;27.69;38.61;101637.19;5060370;27;96868;-87
2021/08/21 08:39:35;;;;;;;;;;;;;;;28.34;37.37;101627.38;5072244;27;97773;-86
2021/08/21 08:42:02;;;;;;;;;;;;;;;28.26;37.21;101636.25;5075717;27;99853;-87
2021/08/21 08:44:32;;;;;;;;;;;;;;;28.03;37.40;101649.28;5062933;27;96574;-86
2021/08/21 08:46:59;;;;;;;;;;;;;;;26.45;40.05;101649.41;5058891;27;96282;-87
2021/08/21 08:49:25;;;;;;;;;;;;;;;27.93;37.72;101645.75;5070576;27;98866;-87
2021/08/21 08:51:52;;;;;;;;;;;;;;;28.11;37.15;101644.00;5072750;27;98773;-86
2021/08/21 08:54:20;;;;;;;;;;;;;;;27.71;37.87;101649.59;5066666;27;97547;-89
2021/08/21 08:56:46;;;;;;;;;;;;;;;27.58;38.26;101645.47;5081865;27;96419;-85
2021/08/21 08:59:13;;;;;;;;;;;;;;;26.62;40.04;101646.06;5081050;27;97011;-84
2021/08/21 09:01:43;;;;;;;;;;;;;;;27.13;39.30;101640.53;5070826;27;97749;-86
2021/08/21 09:04:17;;;;;;;;;;;;;;;25.21;43.57;101650.94;5081977;27;96016;-87
2021/08/21 09:06:43;;;;;;;;;;;;;;;26.65;41.11;101645.78;5080621;27;97027;-84
2021/08/21 09:09:10;;;;;;;;;;;;;;;27.36;38.99;101652.00;5078751;27;97957;-86
2021/08/21 09:11:40;;;;;;;;;;;;;;;27.35;38.63;101656.56;5060766;27;97928;-84
2021/08/21 09:14:15;;;;;;;;;;;;;;;27.25;38.60;101652.13;5072622;27;96539;-87
2021/08/21 09:16:41;;;;;;;;;;;;;;;26.72;40.01;101648.78;5075533;27;96482;-88
2021/08/21 09:19:09;;;;;;;;;;;;;;;26.88;40.10;101650.00;5065000;27;96515;-89
2021/08/21 09:21:38;;;;;;;;;;;;;;;26.76;40.22;101653.81;5065694;27;99847;-87
2021/08/21 09:24:20;;;;;;;;;;;;;;;27.30;39.44;101642.59;5048033;27;96906;-86
2021/08/21 09:26:51;;;;;;;;;;;;;;;26.40;41.09;101654.34;5057345;27;96726;-87
2021/08/21 09:29:24;;;;;;;;;;;;;;;25.34;42.88;101657.06;5046103;27;100796;-86
2021/08/21 09:31:50;;;;;;;;;;;;;;;25.33;43.48;101649.09;5048897;28;98958;-88
2021/08/21 09:34:20;;;;;;;;;;;;;;;25.41;43.47;101641.19;5057229;27;96822;-84
2021/08/21 09:36:46;;;;;;;;;;;;;;;25.54;43.01;101649.97;5051628;27;98710;-84
2021/08/21 09:39:16;;;;;;;;;;;;;;;25.94;42.41;101649.34;5057705;27;99236;-88
2021/08/21 09:41:54;;;;;;;;;;;;;;;26.67;40.72;101649.22;5049321;27;97855;-88
2021/08/21 09:44:25;;;;;;;;;;;;;;;25.27;43.27;101649.63;5076223;27;96757;-89
2021/08/21 09:47:08;;;;;;;;;;;;;;;25.74;42.17;101643.78;5057327;28;96488;-89
2021/08/21 09:49:34;;;;;;;;;;;;;;;25.69;42.31;101650.56;5046673;27;98918;-89
2021/08/21 09:52:05;;;;;;;;;;;;;;;26.20;41.23;101651.50;5049067;28;97868;-89
2021/08/21 09:54:31;;;;;;;;;;;;;;;25.53;42.51;101640.16;5067038;27;97728;-90
2021/08/21 09:56:59;;;;;;;;;;;;;;;25.91;42.55;101650.47;5053243;27;96688;-89
2021/08/21 09:59:39;;;;;;;;;;;;;;;26.08;41.84;101647.16;5056856;27;97838;-89
2021/08/21 10:02:07;;;;;;;;;;;;;;;26.49;40.60;101648.13;5066409;27;96672;-89
2021/08/21 10:04:34;;;;;;;;;;;;;;;26.08;41.92;101649.00;5068457;27;96760;-89
2021/08/21 10:07:04;;;;;;;;;;;;;;;26.30;41.45;101646.19;5065278;27;95984;-88
2021/08/21 10:09:31;;;;;;;;;;;;;;;26.62;40.32;101647.91;5057603;27;98181;-88
2021/08/21 10:11:59;;;;;;;;;;;;;;;27.43;38.66;101642.31;5074520;27;96968;-88
2021/08/21 10:14:25;;;;;;;;;;;;;;;26.33;40.81;101645.91;5055850;27;96597;-90
2021/08/21 10:16:52;;;;;;;;;;;;;;;27.46;38.85;101633.00;5072361;27;96865;-89
2021/08/21 10:19:19;;;;;;;;;;;;;;;27.44;39.03;101638.56;5073867;27;98778;-89
2021/08/21 10:21:49;;;;;;;;;;;;;;;27.29;38.95;101629.16;5068336;27;97772;-82
2021/08/21 10:24:23;;;;;;;;;;;;;;;28.36;36.63;101636.22;5079661;27;96548;-84
2021/08/21 10:26:54;;;;;;;;;;;;;;;28.45;36.67;101640.78;5077126;27;96217;-88
2021/08/21 10:29:22;;;;;;;;;;;;;;;28.44;35.94;101636.34;5064486;27;97810;-86
2021/08/21 10:31:48;;;;;;;;;;;;;;;27.39;37.36;101643.56;5077582;27;97795;-87
2021/08/21 10:34:15;;;;;;;;;;;;;;;28.19;36.58;101639.72;5073385;27;96606;-89
2021/08/21 10:36:50;;;;;;;;;;;;;;;28.04;36.84;101636.56;5058992;27;97408;-88
2021/08/21 10:39:20;;;;;;;;;;;;;;;26.92;38.68;101642.47;5055037;27;98115;-87
2021/08/21 10:54:57;;;;;;;;;;;;;;;26.85;39.42;101642.13;5033087;27;96048;-84
2021/08/21 10:57:28;;;;;;;;;;;;;;;27.31;38.69;101637.97;5028709;22;96559;-89
2021/08/21 10:59:55;;;;;;;;;;;;;;;27.62;37.78;101647.78;5046106;27;97101;-89
2021/08/21 11:02:44;;;;;;;;;;;;;;;28.05;36.73;101638.28;5046620;22;97834;-89
2021/08/21 11:05:28;;;;;;;;;;;;;;;28.42;36.15;101632.94;5262081;22;97443;-89
2021/08/21 11:08:03;;;;;;;;;;;;;;;28.55;35.83;101622.59;5039395;28;95947;-85
2021/08/21 11:10:31;;;;;;;;;;;;;;;28.77;35.37;101619.47;5028662;28;98894;-86
2021/08/21 11:12:57;;;;;;;;;;;;;;;28.65;35.35;101626.09;5019881;28;97769;-87
2021/08/21 11:15:31;;;;;;;;;;;;;;;28.26;36.26;101624.53;5285376;22;97804;-87
2021/08/21 11:18:28;;;;;;;;;;;;;;;27.98;36.85;101621.72;5057292;27;107940;-88
2021/08/21 11:20:55;;;;;;;;;;;;;;;27.91;36.72;101617.84;5058482;27;97867;-81
2021/08/21 11:26:30;;;;;;;;;;;;;;;;;;;;;
2021/08/21 11:29:10;;;;;;;;;;;;;;;27.11;38.55;101620.81;5070070;27;115380;-83
2021/08/21 11:47:10;;;;;;;;;;;;;;;27.66;36.08;101610.31;5009038;28;96898;-87
2021/08/21 11:49:38;;;;;;;;;;;;;;;27.59;36.48;101599.19;5020516;27;96744;-88
2021/08/21 11:52:06;;;;;;;;;;;;;;;28.25;35.20;101603.78;5015070;28;96842;-88
2021/08/21 12:00:11;;;;;;;;;;;;;;;28.78;34.15;101598.59;5023973;22;96617;-88
2021/08/21 12:02:46;;;;;;;;;;;;;;;28.32;34.62;101591.34;5085776;27;99902;-88
2021/08/21 12:05:13;;;;;;;;;;;;;;;28.60;33.91;101595.78;5097178;27;98181;-88
2021/08/21 12:07:39;;;;;;;;;;;;;;;28.83;34.04;101596.25;5088703;27;96713;-90
2021/08/21 12:10:06;;;;;;;;;;;;;;;29.48;32.82;101596.97;5089281;27;96810;-90
2021/08/21 12:12:35;;;;;;;;;;;;;;;29.12;33.54;101590.63;5094528;27;100266;-88
2021/08/21 12:15:02;;;;;;;;;;;;;;;29.69;32.88;101595.63;5091998;27;98745;-87
2021/08/21 12:17:34;;;;;;;;;;;;;;;29.99;31.90;101590.78;5091358;27;96804;-82
2021/08/21 12:22:31;;;;;;;;;;;;;;;29.57;31.76;101594.16;5070956;22;125355;-88
2021/08/21 12:24:59;;;;;;;;;;;;;;;29.59;32.18;101594.00;5070344;27;98245;-87
2021/08/21 12:27:30;;;;;;;;;;;;;;;30.20;31.47;101591.22;5058110;27;96190;-88
2021/08/21 12:30:06;;;;;;;;;;;;;;;29.56;32.50;101597.91;5072106;27;96673;-87
2021/08/21 12:32:33;;;;;;;;;;;;;;;28.70;33.50;101595.72;5054346;27;99090;-87
2021/08/21 12:35:11;;;;;;;;;;;;;;;29.44;32.48;101596.44;5066043;27;98142;-88
2021/08/21 12:37:39;;;;;;;;;;;;;;;29.70;32.75;101591.88;5074774;27;96627;-88
2021/08/21 12:40:06;;;;;;;;;;;;;;;29.23;33.69;101595.84;5069538;27;96811;-84
2021/08/21 12:42:33;;;;;;;;;;;;;;;29.47;33.65;101592.56;5071162;27;97126;-88
2021/08/21 12:45:01;;;;;;;;;;;;;;;29.41;33.22;101596.72;5069090;27;98018;-87
2021/08/21 12:47:35;;;;;;;;;;;;;;;29.83;32.72;101590.63;5074385;27;96519;-87
2021/08/21 12:50:21;;;;;;;;;;;;;;;29.31;33.41;101590.50;5058871;27;96774;-82
2021/08/21 12:53:02;;;;;;;;;;;;;;;29.50;32.70;101594.94;5056599;27;98930;-90
2021/08/21 12:55:29;;;;;;;;;;;;;;;29.14;33.42;101581.31;5062444;27;97761;-88
2021/08/21 12:58:06;;;;;;;;;;;;;;;28.58;34.42;101580.63;5204534;22;99777;-88
2021/08/21 13:00:34;;;;;;;;;;;;;;;29.17;33.69;101582.88;5066886;27;96883;-89
2021/08/21 13:03:12;;;;;;;;;;;;;;;29.17;34.07;101582.88;5080513;27;96976;-89
2021/08/21 13:05:39;;;;;;;;;;;;;;;29.48;33.41;101586.94;5065067;27;99339;-89
2021/08/21 13:08:08;;;;;;;;;;;;;;;29.89;32.84;101573.63;5059266;27;96876;-90
2021/08/21 13:10:37;;;;;;;;;;;;;;;29.67;33.07;101585.88;5329693;22;98761;-89
2021/08/21 13:13:04;;;;;;;;;;;;;;;29.14;34.14;101575.88;5075958;27;99354;-90
2021/08/21 13:15:48;;;;;;;;;;;;;;;29.82;32.77;101578.88;5070957;27;98715;-81
2021/08/21 13:18:15;;;;;;;;;;;;;;;29.40;33.35;101580.56;5056022;28;96607;-90
2021/08/21 13:20:42;;;;;;;;;;;;;;;29.24;33.90;101571.19;5066457;27;96728;-88
2021/08/21 13:23:10;;;;;;;;;;;;;;;27.93;35.46;101564.25;5063574;27;98221;-88
2021/08/21 13:25:36;;;;;;;;;;;;;;;29.10;32.92;101566.28;5053411;27;97676;-88
2021/08/21 13:28:03;;;;;;;;;;;;;;;29.66;32.44;101567.88;5075643;27;96699;-89
2021/08/21 13:30:29;;;;;;;;;;;;;;;29.83;32.50;101561.50;5082171;27;96851;-89
2021/08/21 13:32:56;;;;;;;;;;;;;;;30.45;32.20;101552.19;5071087;27;98227;-89
2021/08/21 13:35:22;;;;;;;;;;;;;;;29.96;31.87;101559.25;5064337;27;97784;-89
2021/08/21 13:37:49;;;;;;;;;;;;;;;30.20;32.19;101563.97;5067587;27;96558;-90
2021/08/21 13:40:32;;;;;;;;;;;;;;;29.75;32.43;101555.13;5058167;27;96931;-88